• Join FlightAware (Why Join?)
  • Login
  • US Flag 
08:22AM EDT


 

Airport Tracker/Info


-or-


 

Live Flight TrackerFlight Track Log ✈ JUS327 ✈ 11-May-2013 ✈ KSLN - KRFD

Flight Track Log - Related Links

Times and Time Zones

All times are in EDT time to prevent confusion due to time zone crossing. See the JUS327 flight status page for this flight to view local times or setup timezone preferences in your user account.

Time Position Orientation Groundspeed Altitude Reporting Facility
EDT Latitude Longitude Course Direction KTS MPH feet Rate Location/Type
04:44AM 38.8683 -97.5906 41° Northeast 208 239 4,600  Level Kansas City Center
04:45AM 38.9217 -97.5389 37° Northeast 241 277 6,700 2,820 Climbing Kansas City Center
04:46AM 38.9747 -97.4831 39° Northeast 256 295 10,300 2,880 Climbing Kansas City Center
04:47AM 39.0372 -97.4206 38° Northeast 274 315 12,600 2,400 Climbing Kansas City Center
04:48AM 39.1033 -97.3550 38° Northeast 312 359 15,200 2,280 Climbing Kansas City Center
04:49AM 39.1711 -97.2847 39° Northeast 326 375 17,300 1,980 Climbing Kansas City Center
04:50AM 39.2414 -97.2097 40° Northeast 342 394 19,300 2,160 Climbing Kansas City Center
04:51AM 39.3303 -97.1225 37° Northeast 355 409 21,700 2,040 Climbing Kansas City Center
04:52AM 39.4039 -97.0378 42° Northeast 365 420 23,500 1,680 Climbing Kansas City Center
04:53AM 39.4789 -96.9467 43° Northeast 380 437 25,100 1,500 Climbing Kansas City Center
04:54AM 39.5264 -96.8203 64° Northeast 407 468 26,600 1,560 Climbing Kansas City Center
04:55AM 39.5828 -96.6681 64° Northeast 419 482 28,300 1,560 Climbing Kansas City Center
04:56AM 39.6394 -96.5386 60° Northeast 429 494 29,800 1,380 Climbing Kansas City Center
04:57AM 39.6889 -96.4036 65° Northeast 432 497 31,100 1,260 Climbing Kansas City Center
04:58AM 39.7475 -96.2428 65° Northeast 439 505 32,400 1,320 Climbing Kansas City Center
04:59AM 39.8075 -96.1094 60° Northeast 442 509 33,800 1,200 Climbing Kansas City Center
05:00AM 39.8539 -95.9692 67° East 440 506 34,800 540 Climbing Kansas City Center
05:01AM 39.9089 -95.8367 62° Northeast 436 502 35,000 60 Climbing Kansas City Center
05:03AM 39.9728 -95.6589 65° Northeast 442 509 35,000  Level Minneapolis Center
05:04AM 40.0256 -95.5167 64° Northeast 440 506 35,000  Level Minneapolis Center
05:05AM 40.0856 -95.3767 61° Northeast 442 509 35,000  Level Minneapolis Center
05:06AM 40.1342 -95.2272 67° East 445 512 35,000  Level Minneapolis Center
05:07AM 40.1783 -95.1125 63° Northeast 446 513 35,000  Level Minneapolis Center
05:08AM 40.2478 -94.9397 62° Northeast 448 516 35,000  Level Minneapolis Center
05:09AM 40.2953 -94.7872 68° East 452 520 35,000  Level Minneapolis Center
05:10AM 40.3567 -94.6458 60° Northeast 449 517 35,000  Level Minneapolis Center
05:11AM 40.4131 -94.4828 66° East 455 524 35,000  Level Minneapolis Center
05:12AM 40.4636 -94.3325 66° East 455 524 35,000  Level Minneapolis Center
05:13AM 40.5256 -94.1875 61° Northeast 454 522 35,000  Level Minneapolis Center
05:14AM 40.5733 -94.0339 68° East 458 527 35,000  Level Minneapolis Center
05:15AM 40.6267 -93.8828 65° Northeast 457 526 35,000  Level Minneapolis Center
05:16AM 40.6806 -93.7292 65° Northeast 462 532 35,000  Level Minneapolis Center
05:17AM 40.7317 -93.5747 66° East 462 532 35,000  Level Minneapolis Center
05:18AM 40.7931 -93.4256 61° Northeast 463 533 35,000  Level Minneapolis Center
05:19AM 40.8414 -93.2650 68° East 470 541 35,000  Level Minneapolis Center
05:20AM 40.8975 -93.1078 65° Northeast 473 544 35,000  Level Minneapolis Center
05:21AM 40.9583 -92.9547 62° Northeast 472 543 35,000  Level Minneapolis Center
05:21AM 40.9864 -92.8567 69° East 473 544 35,000  Level Chicago Center
05:22AM 41.0400 -92.6956 66° East 479 551 35,000  Level Chicago Center
05:23AM 41.1000 -92.5406 63° Northeast 475 547 35,000  Level Chicago Center
05:24AM 41.1483 -92.3742 69° East 485 558 35,000  Level Chicago Center
05:25AM 41.2064 -92.2153 64° Northeast 483 556 35,000  Level Chicago Center
05:26AM 41.2606 -92.0628 65° Northeast 478 550 35,000  Level Chicago Center
05:27AM 41.3089 -91.8981 69° East 482 555 35,000  Level Chicago Center
05:28AM 41.3667 -91.7433 64° Northeast 475 547 35,000  Level Chicago Center
05:29AM 41.4181 -91.5825 67° East 476 548 35,000 -300 Level Chicago Center
05:30AM 41.4631 -91.4164 70° East 482 555 34,400 -840 Descending Chicago Center
05:31AM 41.5242 -91.2622 62° Northeast 478 550 33,400 -1,500 Descending Chicago Center
05:32AM 41.5742 -91.0986 68° East 481 554 31,400 -2,280 Descending Chicago Center
05:33AM 41.6247 -90.9344 68° East 484 557 28,900 -2,760 Descending Chicago Center
05:34AM 41.6939 -90.7425 64° Northeast 485 558 25,900 -2,580 Descending Chicago Center
05:35AM 41.7383 -90.5747 70° East 482 555 23,800 -2,100 Descending Chicago Center
05:36AM 41.7867 -90.4258 66° East 442 509 21,700 -2,160 Descending Chicago Center
05:37AM 41.8344 -90.2967 64° Northeast 409 471 19,500 -2,340 Descending Chicago Center
05:38AM 41.8711 -90.1581 70° East 402 463 17,000 -2,400 Descending Chicago Center
05:39AM 41.9119 -90.0203 68° East 402 463 14,700 -2,160 Descending Chicago Center
05:40AM 41.9564 -89.8903 65° Northeast 391 450 12,700 -1,680 Descending Chicago Center
05:41AM 41.9936 -89.7614 69° East 373 429 11,400 -960 Descending Chicago Center
05:42AM 42.0283 -89.6439 68° East 342 394 10,800 -1,020 Descending Chicago Center
05:43AM 42.0611 -89.5389 67° East 310 357 9,400 -1,500 Descending Chicago Center
05:44AM 42.0867 -89.4319 72° East 304 350 7,800 -2,100 Descending Chicago Center
05:45AM 42.1214 -89.3350 64° Northeast 290 334 5,300 -2,220 Descending Chicago Center
05:46AM 42.1464 -89.2386 71° East 276 318 3,400 -1,200 Descending Chicago Center
05:47AM 42.1792 -89.1608 60° Northeast 272 313 2,900 -540 Descending Chicago Center
05:49AM 42.1954 -89.0972 75° East  Level Estimated
05:56AM 42.1954 -89.0972 75° East  Level Estimated